<?xml version="1.0" encoding="UTF-8" standalone="no" ?>
<gpx xmlns="http://www.topografix.com/GPX/1/1" xmlns:xsi="http://www.w3.org/2001/XMLSchema-instance" xsi:schemaLocation="http://www.topografix.com/GPX/1/1 http://www.topografix.com/GPX/1/1/gpx.xsd" version="1.1" creator="VisuGPX - https://www.visugpx.com">
  <metadata>
    <name>Marche Nordique</name>
    <desc><![CDATA[Étang des Noues, beau temps et marche agréable sous le soleil !

Cholet 49300]]></desc>
  </metadata>
  <trk>
    <name><![CDATA[Marche Nordique_1]]></name>
    <trkseg>
      <trkpt lat="47.06806" lon="-0.81128">
        <ele>128</ele>
        <time>2016-10-27T12:27:49Z</time>
      </trkpt>
      <trkpt lat="47.06806" lon="-0.81128">
        <ele>192</ele>
        <time>2016-10-27T12:28:12Z</time>
      </trkpt>
      <trkpt lat="47.06822" lon="-0.81077">
        <ele>189</ele>
        <time>2016-10-27T12:28:28Z</time>
      </trkpt>
      <trkpt lat="47.06826" lon="-0.81064">
        <ele>187</ele>
        <time>2016-10-27T12:28:37Z</time>
      </trkpt>
      <trkpt lat="47.06832" lon="-0.81043">
        <ele>189</ele>
        <time>2016-10-27T12:28:49Z</time>
      </trkpt>
      <trkpt lat="47.06838" lon="-0.81031">
        <ele>188</ele>
        <time>2016-10-27T12:29:04Z</time>
      </trkpt>
      <trkpt lat="47.0686" lon="-0.80978">
        <ele>182</ele>
        <time>2016-10-27T12:29:24Z</time>
      </trkpt>
      <trkpt lat="47.06874" lon="-0.80957">
        <ele>188</ele>
        <time>2016-10-27T12:29:37Z</time>
      </trkpt>
      <trkpt lat="47.06895" lon="-0.80922">
        <ele>190</ele>
        <time>2016-10-27T12:29:52Z</time>
      </trkpt>
      <trkpt lat="47.069" lon="-0.80907">
        <ele>192</ele>
        <time>2016-10-27T12:30:02Z</time>
      </trkpt>
      <trkpt lat="47.06908" lon="-0.80885">
        <ele>188</ele>
        <time>2016-10-27T12:30:17Z</time>
      </trkpt>
      <trkpt lat="47.06913" lon="-0.80863">
        <ele>180</ele>
        <time>2016-10-27T12:30:29Z</time>
      </trkpt>
      <trkpt lat="47.06922" lon="-0.80845">
        <ele>174</ele>
        <time>2016-10-27T12:30:40Z</time>
      </trkpt>
      <trkpt lat="47.0694" lon="-0.80811">
        <ele>174</ele>
        <time>2016-10-27T12:30:57Z</time>
      </trkpt>
      <trkpt lat="47.0695" lon="-0.80797">
        <ele>176</ele>
        <time>2016-10-27T12:31:07Z</time>
      </trkpt>
      <trkpt lat="47.06977" lon="-0.80768">
        <ele>178</ele>
        <time>2016-10-27T12:31:24Z</time>
      </trkpt>
      <trkpt lat="47.06987" lon="-0.8075">
        <ele>176</ele>
        <time>2016-10-27T12:31:35Z</time>
      </trkpt>
      <trkpt lat="47.06998" lon="-0.80738">
        <ele>173</ele>
        <time>2016-10-27T12:31:43Z</time>
      </trkpt>
      <trkpt lat="47.07015" lon="-0.80722">
        <ele>178</ele>
        <time>2016-10-27T12:31:56Z</time>
      </trkpt>
      <trkpt lat="47.07027" lon="-0.80708">
        <ele>179</ele>
        <time>2016-10-27T12:32:05Z</time>
      </trkpt>
      <trkpt lat="47.07044" lon="-0.8069">
        <ele>178</ele>
        <time>2016-10-27T12:32:18Z</time>
      </trkpt>
      <trkpt lat="47.07065" lon="-0.80673">
        <ele>176</ele>
        <time>2016-10-27T12:32:32Z</time>
      </trkpt>
      <trkpt lat="47.07079" lon="-0.80664">
        <ele>172</ele>
        <time>2016-10-27T12:32:42Z</time>
      </trkpt>
      <trkpt lat="47.07106" lon="-0.80655">
        <ele>178</ele>
        <time>2016-10-27T12:32:57Z</time>
      </trkpt>
      <trkpt lat="47.07126" lon="-0.80653">
        <ele>181</ele>
        <time>2016-10-27T12:33:07Z</time>
      </trkpt>
      <trkpt lat="47.07144" lon="-0.8065">
        <ele>177</ele>
        <time>2016-10-27T12:33:18Z</time>
      </trkpt>
      <trkpt lat="47.07165" lon="-0.80647">
        <ele>174</ele>
        <time>2016-10-27T12:33:31Z</time>
      </trkpt>
      <trkpt lat="47.07187" lon="-0.8064">
        <ele>178</ele>
        <time>2016-10-27T12:33:44Z</time>
      </trkpt>
      <trkpt lat="47.07202" lon="-0.8064">
        <ele>180</ele>
        <time>2016-10-27T12:33:51Z</time>
      </trkpt>
      <trkpt lat="47.07219" lon="-0.80635">
        <ele>181</ele>
        <time>2016-10-27T12:34:00Z</time>
      </trkpt>
      <trkpt lat="47.07234" lon="-0.80629">
        <ele>175</ele>
        <time>2016-10-27T12:34:11Z</time>
      </trkpt>
      <trkpt lat="47.07256" lon="-0.80622">
        <ele>175</ele>
        <time>2016-10-27T12:34:23Z</time>
      </trkpt>
      <trkpt lat="47.0727" lon="-0.80619">
        <ele>177</ele>
        <time>2016-10-27T12:34:30Z</time>
      </trkpt>
      <trkpt lat="47.07292" lon="-0.80621">
        <ele>181</ele>
        <time>2016-10-27T12:34:42Z</time>
      </trkpt>
      <trkpt lat="47.07307" lon="-0.80625">
        <ele>181</ele>
        <time>2016-10-27T12:34:52Z</time>
      </trkpt>
      <trkpt lat="47.07322" lon="-0.80634">
        <ele>177</ele>
        <time>2016-10-27T12:35:03Z</time>
      </trkpt>
      <trkpt lat="47.07344" lon="-0.80644">
        <ele>177</ele>
        <time>2016-10-27T12:35:18Z</time>
      </trkpt>
      <trkpt lat="47.07361" lon="-0.80651">
        <ele>175</ele>
        <time>2016-10-27T12:35:28Z</time>
      </trkpt>
      <trkpt lat="47.07374" lon="-0.80652">
        <ele>175</ele>
        <time>2016-10-27T12:35:36Z</time>
      </trkpt>
      <trkpt lat="47.07387" lon="-0.80654">
        <ele>179</ele>
        <time>2016-10-27T12:35:45Z</time>
      </trkpt>
      <trkpt lat="47.07405" lon="-0.80655">
        <ele>175</ele>
        <time>2016-10-27T12:35:56Z</time>
      </trkpt>
      <trkpt lat="47.07428" lon="-0.80671">
        <ele>179</ele>
        <time>2016-10-27T12:36:12Z</time>
      </trkpt>
      <trkpt lat="47.07443" lon="-0.80684">
        <ele>178</ele>
        <time>2016-10-27T12:36:22Z</time>
      </trkpt>
      <trkpt lat="47.07442" lon="-0.80707">
        <ele>174</ele>
        <time>2016-10-27T12:36:31Z</time>
      </trkpt>
      <trkpt lat="47.07438" lon="-0.80729">
        <ele>176</ele>
        <time>2016-10-27T12:36:38Z</time>
      </trkpt>
      <trkpt lat="47.07435" lon="-0.80754">
        <ele>174</ele>
        <time>2016-10-27T12:36:49Z</time>
      </trkpt>
      <trkpt lat="47.07433" lon="-0.80777">
        <ele>176</ele>
        <time>2016-10-27T12:36:59Z</time>
      </trkpt>
      <trkpt lat="47.07433" lon="-0.80794">
        <ele>177</ele>
        <time>2016-10-27T12:37:09Z</time>
      </trkpt>
      <trkpt lat="47.0743" lon="-0.80836">
        <ele>174</ele>
        <time>2016-10-27T12:37:25Z</time>
      </trkpt>
      <trkpt lat="47.07431" lon="-0.80857">
        <ele>172</ele>
        <time>2016-10-27T12:37:34Z</time>
      </trkpt>
      <trkpt lat="47.07429" lon="-0.80884">
        <ele>171</ele>
        <time>2016-10-27T12:37:45Z</time>
      </trkpt>
      <trkpt lat="47.07424" lon="-0.80915">
        <ele>175</ele>
        <time>2016-10-27T12:37:57Z</time>
      </trkpt>
      <trkpt lat="47.07421" lon="-0.80933">
        <ele>175</ele>
        <time>2016-10-27T12:38:04Z</time>
      </trkpt>
      <trkpt lat="47.07418" lon="-0.80964">
        <ele>175</ele>
        <time>2016-10-27T12:38:16Z</time>
      </trkpt>
      <trkpt lat="47.07422" lon="-0.80984">
        <ele>177</ele>
        <time>2016-10-27T12:38:24Z</time>
      </trkpt>
      <trkpt lat="47.07422" lon="-0.81006">
        <ele>173</ele>
        <time>2016-10-27T12:38:38Z</time>
      </trkpt>
      <trkpt lat="47.07428" lon="-0.81042">
        <ele>174</ele>
        <time>2016-10-27T12:38:54Z</time>
      </trkpt>
      <trkpt lat="47.07428" lon="-0.81085">
        <ele>178</ele>
        <time>2016-10-27T12:39:08Z</time>
      </trkpt>
      <trkpt lat="47.07427" lon="-0.81111">
        <ele>179</ele>
        <time>2016-10-27T12:39:17Z</time>
      </trkpt>
      <trkpt lat="47.07428" lon="-0.81127">
        <ele>178</ele>
        <time>2016-10-27T12:39:23Z</time>
      </trkpt>
      <trkpt lat="47.0743" lon="-0.81143">
        <ele>176</ele>
        <time>2016-10-27T12:39:32Z</time>
      </trkpt>
      <trkpt lat="47.07429" lon="-0.81161">
        <ele>177</ele>
        <time>2016-10-27T12:39:39Z</time>
      </trkpt>
      <trkpt lat="47.07435" lon="-0.81192">
        <ele>180</ele>
        <time>2016-10-27T12:39:52Z</time>
      </trkpt>
      <trkpt lat="47.07436" lon="-0.81219">
        <ele>179</ele>
        <time>2016-10-27T12:40:05Z</time>
      </trkpt>
      <trkpt lat="47.07437" lon="-0.81252">
        <ele>179</ele>
        <time>2016-10-27T12:40:18Z</time>
      </trkpt>
      <trkpt lat="47.07439" lon="-0.81287">
        <ele>175</ele>
        <time>2016-10-27T12:40:29Z</time>
      </trkpt>
      <trkpt lat="47.0744" lon="-0.81303">
        <ele>175</ele>
        <time>2016-10-27T12:40:36Z</time>
      </trkpt>
      <trkpt lat="47.07442" lon="-0.81337">
        <ele>178</ele>
        <time>2016-10-27T12:40:50Z</time>
      </trkpt>
      <trkpt lat="47.07442" lon="-0.81365">
        <ele>175</ele>
        <time>2016-10-27T12:41:03Z</time>
      </trkpt>
      <trkpt lat="47.07444" lon="-0.814">
        <ele>179</ele>
        <time>2016-10-27T12:41:16Z</time>
      </trkpt>
      <trkpt lat="47.07445" lon="-0.81428">
        <ele>176</ele>
        <time>2016-10-27T12:41:30Z</time>
      </trkpt>
      <trkpt lat="47.07446" lon="-0.81445">
        <ele>177</ele>
        <time>2016-10-27T12:41:47Z</time>
      </trkpt>
      <trkpt lat="47.07432" lon="-0.81466">
        <ele>176</ele>
        <time>2016-10-27T12:42:06Z</time>
      </trkpt>
      <trkpt lat="47.07416" lon="-0.8149">
        <ele>174</ele>
        <time>2016-10-27T12:42:22Z</time>
      </trkpt>
      <trkpt lat="47.07397" lon="-0.8149">
        <ele>176</ele>
        <time>2016-10-27T12:42:32Z</time>
      </trkpt>
      <trkpt lat="47.07376" lon="-0.81488">
        <ele>174</ele>
        <time>2016-10-27T12:42:45Z</time>
      </trkpt>
      <trkpt lat="47.07356" lon="-0.81483">
        <ele>174</ele>
        <time>2016-10-27T12:42:58Z</time>
      </trkpt>
      <trkpt lat="47.07335" lon="-0.8148">
        <ele>174</ele>
        <time>2016-10-27T12:43:11Z</time>
      </trkpt>
      <trkpt lat="47.07316" lon="-0.81479">
        <ele>175</ele>
        <time>2016-10-27T12:43:22Z</time>
      </trkpt>
      <trkpt lat="47.07298" lon="-0.81478">
        <ele>173</ele>
        <time>2016-10-27T12:43:34Z</time>
      </trkpt>
      <trkpt lat="47.07278" lon="-0.81473">
        <ele>174</ele>
        <time>2016-10-27T12:43:46Z</time>
      </trkpt>
      <trkpt lat="47.0726" lon="-0.81468">
        <ele>174</ele>
        <time>2016-10-27T12:43:56Z</time>
      </trkpt>
      <trkpt lat="47.07244" lon="-0.81466">
        <ele>176</ele>
        <time>2016-10-27T12:44:05Z</time>
      </trkpt>
      <trkpt lat="47.07224" lon="-0.81461">
        <ele>177</ele>
        <time>2016-10-27T12:44:17Z</time>
      </trkpt>
      <trkpt lat="47.07213" lon="-0.81461">
        <ele>176</ele>
        <time>2016-10-27T12:44:24Z</time>
      </trkpt>
      <trkpt lat="47.07192" lon="-0.81455">
        <ele>176</ele>
        <time>2016-10-27T12:44:37Z</time>
      </trkpt>
      <trkpt lat="47.07179" lon="-0.81453">
        <ele>175</ele>
        <time>2016-10-27T12:44:45Z</time>
      </trkpt>
      <trkpt lat="47.07154" lon="-0.81451">
        <ele>174</ele>
        <time>2016-10-27T12:45:01Z</time>
      </trkpt>
      <trkpt lat="47.07133" lon="-0.81447">
        <ele>173</ele>
        <time>2016-10-27T12:45:15Z</time>
      </trkpt>
      <trkpt lat="47.07115" lon="-0.81443">
        <ele>174</ele>
        <time>2016-10-27T12:45:26Z</time>
      </trkpt>
      <trkpt lat="47.07092" lon="-0.81446">
        <ele>177</ele>
        <time>2016-10-27T12:45:40Z</time>
      </trkpt>
      <trkpt lat="47.07071" lon="-0.81454">
        <ele>177</ele>
        <time>2016-10-27T12:45:53Z</time>
      </trkpt>
      <trkpt lat="47.07058" lon="-0.8146">
        <ele>179</ele>
        <time>2016-10-27T12:46:01Z</time>
      </trkpt>
      <trkpt lat="47.07044" lon="-0.81469">
        <ele>178</ele>
        <time>2016-10-27T12:46:10Z</time>
      </trkpt>
      <trkpt lat="47.07025" lon="-0.81483">
        <ele>178</ele>
        <time>2016-10-27T12:46:23Z</time>
      </trkpt>
      <trkpt lat="47.07008" lon="-0.81494">
        <ele>177</ele>
        <time>2016-10-27T12:46:36Z</time>
      </trkpt>
      <trkpt lat="47.06996" lon="-0.81502">
        <ele>177</ele>
        <time>2016-10-27T12:46:44Z</time>
      </trkpt>
      <trkpt lat="47.06978" lon="-0.81509">
        <ele>178</ele>
        <time>2016-10-27T12:46:55Z</time>
      </trkpt>
      <trkpt lat="47.06967" lon="-0.81518">
        <ele>178</ele>
        <time>2016-10-27T12:47:03Z</time>
      </trkpt>
      <trkpt lat="47.06956" lon="-0.81527">
        <ele>176</ele>
        <time>2016-10-27T12:47:11Z</time>
      </trkpt>
      <trkpt lat="47.06935" lon="-0.81539">
        <ele>177</ele>
        <time>2016-10-27T12:47:24Z</time>
      </trkpt>
      <trkpt lat="47.06921" lon="-0.81552">
        <ele>174</ele>
        <time>2016-10-27T12:47:39Z</time>
      </trkpt>
      <trkpt lat="47.06903" lon="-0.81561">
        <ele>176</ele>
        <time>2016-10-27T12:47:52Z</time>
      </trkpt>
      <trkpt lat="47.06887" lon="-0.81553">
        <ele>176</ele>
        <time>2016-10-27T12:48:03Z</time>
      </trkpt>
      <trkpt lat="47.0687" lon="-0.81535">
        <ele>178</ele>
        <time>2016-10-27T12:48:15Z</time>
      </trkpt>
      <trkpt lat="47.06855" lon="-0.81522">
        <ele>177</ele>
        <time>2016-10-27T12:48:26Z</time>
      </trkpt>
      <trkpt lat="47.06838" lon="-0.8151">
        <ele>178</ele>
        <time>2016-10-27T12:48:39Z</time>
      </trkpt>
      <trkpt lat="47.0682" lon="-0.81489">
        <ele>178</ele>
        <time>2016-10-27T12:48:54Z</time>
      </trkpt>
      <trkpt lat="47.06804" lon="-0.81476">
        <ele>179</ele>
        <time>2016-10-27T12:49:06Z</time>
      </trkpt>
      <trkpt lat="47.06786" lon="-0.81462">
        <ele>180</ele>
        <time>2016-10-27T12:49:19Z</time>
      </trkpt>
      <trkpt lat="47.06768" lon="-0.81448">
        <ele>180</ele>
        <time>2016-10-27T12:49:32Z</time>
      </trkpt>
      <trkpt lat="47.06754" lon="-0.81432">
        <ele>182</ele>
        <time>2016-10-27T12:49:41Z</time>
      </trkpt>
      <trkpt lat="47.06735" lon="-0.81409">
        <ele>184</ele>
        <time>2016-10-27T12:49:53Z</time>
      </trkpt>
      <trkpt lat="47.06723" lon="-0.81393">
        <ele>186</ele>
        <time>2016-10-27T12:50:05Z</time>
      </trkpt>
      <trkpt lat="47.06709" lon="-0.81376">
        <ele>184</ele>
        <time>2016-10-27T12:50:18Z</time>
      </trkpt>
      <trkpt lat="47.06696" lon="-0.81364">
        <ele>184</ele>
        <time>2016-10-27T12:50:29Z</time>
      </trkpt>
      <trkpt lat="47.06696" lon="-0.81364">
        <ele>130.9</ele>
        <time>2016-10-27T12:50:38Z</time>
      </trkpt>
      <trkpt lat="47.06696" lon="-0.81364">
        <ele>130.9</ele>
        <time>2016-10-27T12:51:05Z</time>
      </trkpt>
      <trkpt lat="47.06695" lon="-0.81361">
        <ele>184</ele>
        <time>2016-10-27T12:51:06Z</time>
      </trkpt>
      <trkpt lat="47.06708" lon="-0.81338">
        <ele>180</ele>
        <time>2016-10-27T12:51:28Z</time>
      </trkpt>
      <trkpt lat="47.06719" lon="-0.81311">
        <ele>175</ele>
        <time>2016-10-27T12:51:42Z</time>
      </trkpt>
      <trkpt lat="47.06729" lon="-0.81273">
        <ele>179</ele>
        <time>2016-10-27T12:51:59Z</time>
      </trkpt>
      <trkpt lat="47.06737" lon="-0.81239">
        <ele>177</ele>
        <time>2016-10-27T12:52:13Z</time>
      </trkpt>
      <trkpt lat="47.06747" lon="-0.81212">
        <ele>176</ele>
        <time>2016-10-27T12:52:24Z</time>
      </trkpt>
      <trkpt lat="47.0676" lon="-0.81191">
        <ele>180</ele>
        <time>2016-10-27T12:52:35Z</time>
      </trkpt>
      <trkpt lat="47.06769" lon="-0.81163">
        <ele>179</ele>
        <time>2016-10-27T12:52:47Z</time>
      </trkpt>
      <trkpt lat="47.06777" lon="-0.81136">
        <ele>182</ele>
        <time>2016-10-27T12:52:58Z</time>
      </trkpt>
      <trkpt lat="47.06786" lon="-0.81123">
        <ele>184</ele>
        <time>2016-10-27T12:53:05Z</time>
      </trkpt>
      <trkpt lat="47.06791" lon="-0.81101">
        <ele>180</ele>
        <time>2016-10-27T12:53:15Z</time>
      </trkpt>
      <trkpt lat="47.06806" lon="-0.81072">
        <ele>181</ele>
        <time>2016-10-27T12:53:29Z</time>
      </trkpt>
      <trkpt lat="47.06814" lon="-0.81051">
        <ele>181</ele>
        <time>2016-10-27T12:53:38Z</time>
      </trkpt>
      <trkpt lat="47.06825" lon="-0.81027">
        <ele>178</ele>
        <time>2016-10-27T12:53:49Z</time>
      </trkpt>
      <trkpt lat="47.06837" lon="-0.81007">
        <ele>183</ele>
        <time>2016-10-27T12:54:01Z</time>
      </trkpt>
      <trkpt lat="47.06851" lon="-0.80987">
        <ele>183</ele>
        <time>2016-10-27T12:54:12Z</time>
      </trkpt>
      <trkpt lat="47.06865" lon="-0.80965">
        <ele>187</ele>
        <time>2016-10-27T12:54:24Z</time>
      </trkpt>
      <trkpt lat="47.06877" lon="-0.8094">
        <ele>185</ele>
        <time>2016-10-27T12:54:36Z</time>
      </trkpt>
      <trkpt lat="47.06887" lon="-0.80918">
        <ele>182</ele>
        <time>2016-10-27T12:54:48Z</time>
      </trkpt>
      <trkpt lat="47.06895" lon="-0.80898">
        <ele>182</ele>
        <time>2016-10-27T12:54:58Z</time>
      </trkpt>
      <trkpt lat="47.06906" lon="-0.80877">
        <ele>182</ele>
        <time>2016-10-27T12:55:07Z</time>
      </trkpt>
      <trkpt lat="47.06916" lon="-0.80857">
        <ele>180</ele>
        <time>2016-10-27T12:55:18Z</time>
      </trkpt>
      <trkpt lat="47.0693" lon="-0.80829">
        <ele>179</ele>
        <time>2016-10-27T12:55:32Z</time>
      </trkpt>
      <trkpt lat="47.06942" lon="-0.80807">
        <ele>183</ele>
        <time>2016-10-27T12:55:45Z</time>
      </trkpt>
      <trkpt lat="47.0696" lon="-0.80785">
        <ele>183</ele>
        <time>2016-10-27T12:55:58Z</time>
      </trkpt>
      <trkpt lat="47.06977" lon="-0.80761">
        <ele>180</ele>
        <time>2016-10-27T12:56:11Z</time>
      </trkpt>
      <trkpt lat="47.06992" lon="-0.80745">
        <ele>185</ele>
        <time>2016-10-27T12:56:23Z</time>
      </trkpt>
      <trkpt lat="47.07007" lon="-0.80728">
        <ele>187</ele>
        <time>2016-10-27T12:56:34Z</time>
      </trkpt>
      <trkpt lat="47.07025" lon="-0.80714">
        <ele>185</ele>
        <time>2016-10-27T12:56:46Z</time>
      </trkpt>
      <trkpt lat="47.07045" lon="-0.80699">
        <ele>180</ele>
        <time>2016-10-27T12:57:00Z</time>
      </trkpt>
      <trkpt lat="47.0706" lon="-0.80683">
        <ele>178</ele>
        <time>2016-10-27T12:57:10Z</time>
      </trkpt>
      <trkpt lat="47.07074" lon="-0.80668">
        <ele>179</ele>
        <time>2016-10-27T12:57:22Z</time>
      </trkpt>
      <trkpt lat="47.0709" lon="-0.80666">
        <ele>174</ele>
        <time>2016-10-27T12:57:35Z</time>
      </trkpt>
      <trkpt lat="47.07107" lon="-0.80657">
        <ele>173</ele>
        <time>2016-10-27T12:57:46Z</time>
      </trkpt>
      <trkpt lat="47.07122" lon="-0.80651">
        <ele>172</ele>
        <time>2016-10-27T12:57:56Z</time>
      </trkpt>
      <trkpt lat="47.07146" lon="-0.80649">
        <ele>169</ele>
        <time>2016-10-27T12:58:09Z</time>
      </trkpt>
      <trkpt lat="47.07155" lon="-0.80646">
        <ele>169</ele>
        <time>2016-10-27T12:58:15Z</time>
      </trkpt>
      <trkpt lat="47.07178" lon="-0.80641">
        <ele>173</ele>
        <time>2016-10-27T12:58:29Z</time>
      </trkpt>
      <trkpt lat="47.07193" lon="-0.80637">
        <ele>175</ele>
        <time>2016-10-27T12:58:36Z</time>
      </trkpt>
      <trkpt lat="47.07204" lon="-0.80634">
        <ele>175</ele>
        <time>2016-10-27T12:58:43Z</time>
      </trkpt>
      <trkpt lat="47.0722" lon="-0.80626">
        <ele>171</ele>
        <time>2016-10-27T12:58:53Z</time>
      </trkpt>
      <trkpt lat="47.07231" lon="-0.80622">
        <ele>172</ele>
        <time>2016-10-27T12:59:01Z</time>
      </trkpt>
      <trkpt lat="47.07258" lon="-0.80616">
        <ele>174</ele>
        <time>2016-10-27T12:59:17Z</time>
      </trkpt>
      <trkpt lat="47.0728" lon="-0.80618">
        <ele>175</ele>
        <time>2016-10-27T12:59:30Z</time>
      </trkpt>
      <trkpt lat="47.07296" lon="-0.80623">
        <ele>173</ele>
        <time>2016-10-27T12:59:40Z</time>
      </trkpt>
      <trkpt lat="47.07314" lon="-0.80634">
        <ele>174</ele>
        <time>2016-10-27T12:59:52Z</time>
      </trkpt>
      <trkpt lat="47.07334" lon="-0.80638">
        <ele>178</ele>
        <time>2016-10-27T13:00:02Z</time>
      </trkpt>
      <trkpt lat="47.07351" lon="-0.80639">
        <ele>177</ele>
        <time>2016-10-27T13:00:13Z</time>
      </trkpt>
      <trkpt lat="47.07378" lon="-0.80642">
        <ele>180</ele>
        <time>2016-10-27T13:00:28Z</time>
      </trkpt>
      <trkpt lat="47.07395" lon="-0.80645">
        <ele>181</ele>
        <time>2016-10-27T13:00:39Z</time>
      </trkpt>
      <trkpt lat="47.07416" lon="-0.80661">
        <ele>183</ele>
        <time>2016-10-27T13:00:52Z</time>
      </trkpt>
      <trkpt lat="47.07429" lon="-0.80672">
        <ele>179</ele>
        <time>2016-10-27T13:01:01Z</time>
      </trkpt>
      <trkpt lat="47.07435" lon="-0.80696">
        <ele>172</ele>
        <time>2016-10-27T13:01:15Z</time>
      </trkpt>
      <trkpt lat="47.07437" lon="-0.80723">
        <ele>175</ele>
        <time>2016-10-27T13:01:26Z</time>
      </trkpt>
      <trkpt lat="47.07433" lon="-0.80759">
        <ele>175</ele>
        <time>2016-10-27T13:01:39Z</time>
      </trkpt>
      <trkpt lat="47.07432" lon="-0.80781">
        <ele>179</ele>
        <time>2016-10-27T13:01:47Z</time>
      </trkpt>
      <trkpt lat="47.07434" lon="-0.80807">
        <ele>180</ele>
        <time>2016-10-27T13:01:57Z</time>
      </trkpt>
      <trkpt lat="47.07427" lon="-0.80835">
        <ele>182</ele>
        <time>2016-10-27T13:02:07Z</time>
      </trkpt>
      <trkpt lat="47.07426" lon="-0.80863">
        <ele>181</ele>
        <time>2016-10-27T13:02:19Z</time>
      </trkpt>
      <trkpt lat="47.07426" lon="-0.8089">
        <ele>179</ele>
        <time>2016-10-27T13:02:31Z</time>
      </trkpt>
      <trkpt lat="47.07423" lon="-0.8091">
        <ele>178</ele>
        <time>2016-10-27T13:02:39Z</time>
      </trkpt>
      <trkpt lat="47.07419" lon="-0.80944">
        <ele>175</ele>
        <time>2016-10-27T13:02:52Z</time>
      </trkpt>
      <trkpt lat="47.07418" lon="-0.80976">
        <ele>179</ele>
        <time>2016-10-27T13:03:04Z</time>
      </trkpt>
      <trkpt lat="47.07419" lon="-0.80999">
        <ele>176</ele>
        <time>2016-10-27T13:03:16Z</time>
      </trkpt>
      <trkpt lat="47.07419" lon="-0.81018">
        <ele>178</ele>
        <time>2016-10-27T13:03:23Z</time>
      </trkpt>
      <trkpt lat="47.07421" lon="-0.81034">
        <ele>177</ele>
        <time>2016-10-27T13:03:30Z</time>
      </trkpt>
      <trkpt lat="47.07423" lon="-0.81057">
        <ele>174</ele>
        <time>2016-10-27T13:03:44Z</time>
      </trkpt>
      <trkpt lat="47.07423" lon="-0.8109">
        <ele>180</ele>
        <time>2016-10-27T13:03:55Z</time>
      </trkpt>
      <trkpt lat="47.07424" lon="-0.81113">
        <ele>178</ele>
        <time>2016-10-27T13:04:04Z</time>
      </trkpt>
      <trkpt lat="47.07426" lon="-0.81144">
        <ele>179</ele>
        <time>2016-10-27T13:04:17Z</time>
      </trkpt>
      <trkpt lat="47.0743" lon="-0.8117">
        <ele>177</ele>
        <time>2016-10-27T13:04:28Z</time>
      </trkpt>
      <trkpt lat="47.07431" lon="-0.81192">
        <ele>178</ele>
        <time>2016-10-27T13:04:36Z</time>
      </trkpt>
      <trkpt lat="47.07432" lon="-0.81216">
        <ele>179</ele>
        <time>2016-10-27T13:04:46Z</time>
      </trkpt>
      <trkpt lat="47.07435" lon="-0.81239">
        <ele>178</ele>
        <time>2016-10-27T13:04:58Z</time>
      </trkpt>
      <trkpt lat="47.0744" lon="-0.81292">
        <ele>179</ele>
        <time>2016-10-27T13:05:18Z</time>
      </trkpt>
      <trkpt lat="47.07441" lon="-0.81318">
        <ele>181</ele>
        <time>2016-10-27T13:05:28Z</time>
      </trkpt>
      <trkpt lat="47.07442" lon="-0.81347">
        <ele>181</ele>
        <time>2016-10-27T13:05:39Z</time>
      </trkpt>
      <trkpt lat="47.07443" lon="-0.8138">
        <ele>180</ele>
        <time>2016-10-27T13:05:52Z</time>
      </trkpt>
      <trkpt lat="47.07444" lon="-0.81407">
        <ele>183</ele>
        <time>2016-10-27T13:06:02Z</time>
      </trkpt>
      <trkpt lat="47.07447" lon="-0.81429">
        <ele>182</ele>
        <time>2016-10-27T13:06:11Z</time>
      </trkpt>
      <trkpt lat="47.07449" lon="-0.81449">
        <ele>181</ele>
        <time>2016-10-27T13:06:20Z</time>
      </trkpt>
      <trkpt lat="47.07441" lon="-0.81462">
        <ele>182</ele>
        <time>2016-10-27T13:06:29Z</time>
      </trkpt>
      <trkpt lat="47.07426" lon="-0.81479">
        <ele>178</ele>
        <time>2016-10-27T13:06:42Z</time>
      </trkpt>
      <trkpt lat="47.07405" lon="-0.81493">
        <ele>180</ele>
        <time>2016-10-27T13:06:56Z</time>
      </trkpt>
      <trkpt lat="47.07389" lon="-0.8149">
        <ele>181</ele>
        <time>2016-10-27T13:07:06Z</time>
      </trkpt>
      <trkpt lat="47.07369" lon="-0.81489">
        <ele>182</ele>
        <time>2016-10-27T13:07:18Z</time>
      </trkpt>
      <trkpt lat="47.07347" lon="-0.81486">
        <ele>180</ele>
        <time>2016-10-27T13:07:31Z</time>
      </trkpt>
      <trkpt lat="47.07334" lon="-0.81484">
        <ele>180</ele>
        <time>2016-10-27T13:07:38Z</time>
      </trkpt>
      <trkpt lat="47.07315" lon="-0.81479">
        <ele>178</ele>
        <time>2016-10-27T13:07:49Z</time>
      </trkpt>
      <trkpt lat="47.07293" lon="-0.81476">
        <ele>179</ele>
        <time>2016-10-27T13:08:02Z</time>
      </trkpt>
      <trkpt lat="47.07279" lon="-0.81473">
        <ele>179</ele>
        <time>2016-10-27T13:08:10Z</time>
      </trkpt>
      <trkpt lat="47.07269" lon="-0.8147">
        <ele>178</ele>
        <time>2016-10-27T13:08:16Z</time>
      </trkpt>
      <trkpt lat="47.07245" lon="-0.81469">
        <ele>176</ele>
        <time>2016-10-27T13:08:31Z</time>
      </trkpt>
      <trkpt lat="47.07221" lon="-0.81463">
        <ele>178</ele>
        <time>2016-10-27T13:08:45Z</time>
      </trkpt>
      <trkpt lat="47.07203" lon="-0.81461">
        <ele>178</ele>
        <time>2016-10-27T13:08:56Z</time>
      </trkpt>
      <trkpt lat="47.07187" lon="-0.81454">
        <ele>178</ele>
        <time>2016-10-27T13:09:05Z</time>
      </trkpt>
      <trkpt lat="47.0717" lon="-0.81452">
        <ele>178</ele>
        <time>2016-10-27T13:09:15Z</time>
      </trkpt>
      <trkpt lat="47.07152" lon="-0.81448">
        <ele>179</ele>
        <time>2016-10-27T13:09:26Z</time>
      </trkpt>
      <trkpt lat="47.07132" lon="-0.81445">
        <ele>179</ele>
        <time>2016-10-27T13:09:38Z</time>
      </trkpt>
      <trkpt lat="47.07117" lon="-0.81444">
        <ele>178</ele>
        <time>2016-10-27T13:09:47Z</time>
      </trkpt>
      <trkpt lat="47.07099" lon="-0.81442">
        <ele>178</ele>
        <time>2016-10-27T13:09:58Z</time>
      </trkpt>
      <trkpt lat="47.07078" lon="-0.81445">
        <ele>178</ele>
        <time>2016-10-27T13:10:11Z</time>
      </trkpt>
      <trkpt lat="47.07059" lon="-0.81453">
        <ele>177</ele>
        <time>2016-10-27T13:10:23Z</time>
      </trkpt>
      <trkpt lat="47.07042" lon="-0.81466">
        <ele>178</ele>
        <time>2016-10-27T13:10:35Z</time>
      </trkpt>
      <trkpt lat="47.07032" lon="-0.81474">
        <ele>178</ele>
        <time>2016-10-27T13:10:42Z</time>
      </trkpt>
      <trkpt lat="47.07019" lon="-0.81484">
        <ele>177</ele>
        <time>2016-10-27T13:10:51Z</time>
      </trkpt>
      <trkpt lat="47.07006" lon="-0.81489">
        <ele>177</ele>
        <time>2016-10-27T13:10:59Z</time>
      </trkpt>
      <trkpt lat="47.06989" lon="-0.81503">
        <ele>179</ele>
        <time>2016-10-27T13:11:11Z</time>
      </trkpt>
      <trkpt lat="47.06972" lon="-0.81513">
        <ele>179</ele>
        <time>2016-10-27T13:11:23Z</time>
      </trkpt>
      <trkpt lat="47.0695" lon="-0.81527">
        <ele>180</ele>
        <time>2016-10-27T13:11:37Z</time>
      </trkpt>
      <trkpt lat="47.06931" lon="-0.81541">
        <ele>180</ele>
        <time>2016-10-27T13:11:49Z</time>
      </trkpt>
      <trkpt lat="47.06911" lon="-0.81553">
        <ele>181</ele>
        <time>2016-10-27T13:12:02Z</time>
      </trkpt>
      <trkpt lat="47.06895" lon="-0.81561">
        <ele>181</ele>
        <time>2016-10-27T13:12:12Z</time>
      </trkpt>
      <trkpt lat="47.06875" lon="-0.81544">
        <ele>180</ele>
        <time>2016-10-27T13:12:25Z</time>
      </trkpt>
      <trkpt lat="47.06864" lon="-0.81532">
        <ele>178</ele>
        <time>2016-10-27T13:12:33Z</time>
      </trkpt>
      <trkpt lat="47.06852" lon="-0.81521">
        <ele>174</ele>
        <time>2016-10-27T13:12:43Z</time>
      </trkpt>
      <trkpt lat="47.06843" lon="-0.81514">
        <ele>173</ele>
        <time>2016-10-27T13:12:50Z</time>
      </trkpt>
      <trkpt lat="47.06829" lon="-0.81505">
        <ele>175</ele>
        <time>2016-10-27T13:12:59Z</time>
      </trkpt>
      <trkpt lat="47.06813" lon="-0.81487">
        <ele>174</ele>
        <time>2016-10-27T13:13:10Z</time>
      </trkpt>
      <trkpt lat="47.06795" lon="-0.81471">
        <ele>175</ele>
        <time>2016-10-27T13:13:22Z</time>
      </trkpt>
      <trkpt lat="47.06782" lon="-0.81459">
        <ele>175</ele>
        <time>2016-10-27T13:13:32Z</time>
      </trkpt>
      <trkpt lat="47.06762" lon="-0.81442">
        <ele>177</ele>
        <time>2016-10-27T13:13:45Z</time>
      </trkpt>
      <trkpt lat="47.06747" lon="-0.81425">
        <ele>176</ele>
        <time>2016-10-27T13:13:56Z</time>
      </trkpt>
      <trkpt lat="47.06731" lon="-0.81409">
        <ele>177</ele>
        <time>2016-10-27T13:14:08Z</time>
      </trkpt>
      <trkpt lat="47.06724" lon="-0.81396">
        <ele>177</ele>
        <time>2016-10-27T13:14:15Z</time>
      </trkpt>
      <trkpt lat="47.06713" lon="-0.8138">
        <ele>176</ele>
        <time>2016-10-27T13:14:25Z</time>
      </trkpt>
      <trkpt lat="47.06698" lon="-0.81369">
        <ele>177</ele>
        <time>2016-10-27T13:14:36Z</time>
      </trkpt>
      <trkpt lat="47.06698" lon="-0.81369">
        <ele>130.9</ele>
        <time>2016-10-27T13:14:44Z</time>
      </trkpt>
      <trkpt lat="47.06698" lon="-0.81369">
        <ele>130.9</ele>
        <time>2016-10-27T13:17:14Z</time>
      </trkpt>
      <trkpt lat="47.06657" lon="-0.81374">
        <ele>184</ele>
        <time>2016-10-27T13:17:14Z</time>
      </trkpt>
      <trkpt lat="47.06671" lon="-0.81384">
        <ele>181</ele>
        <time>2016-10-27T13:17:26Z</time>
      </trkpt>
      <trkpt lat="47.0669" lon="-0.81366">
        <ele>184</ele>
        <time>2016-10-27T13:17:41Z</time>
      </trkpt>
      <trkpt lat="47.06706" lon="-0.81337">
        <ele>179</ele>
        <time>2016-10-27T13:17:57Z</time>
      </trkpt>
      <trkpt lat="47.06716" lon="-0.81312">
        <ele>175</ele>
        <time>2016-10-27T13:18:09Z</time>
      </trkpt>
      <trkpt lat="47.06726" lon="-0.81283">
        <ele>174</ele>
        <time>2016-10-27T13:18:22Z</time>
      </trkpt>
      <trkpt lat="47.06731" lon="-0.8126">
        <ele>174</ele>
        <time>2016-10-27T13:18:32Z</time>
      </trkpt>
      <trkpt lat="47.06743" lon="-0.81235">
        <ele>176</ele>
        <time>2016-10-27T13:18:43Z</time>
      </trkpt>
      <trkpt lat="47.0675" lon="-0.81222">
        <ele>176</ele>
        <time>2016-10-27T13:18:50Z</time>
      </trkpt>
      <trkpt lat="47.06754" lon="-0.81207">
        <ele>178</ele>
        <time>2016-10-27T13:18:59Z</time>
      </trkpt>
      <trkpt lat="47.0676" lon="-0.81186">
        <ele>179</ele>
        <time>2016-10-27T13:19:07Z</time>
      </trkpt>
      <trkpt lat="47.06764" lon="-0.81165">
        <ele>177</ele>
        <time>2016-10-27T13:19:15Z</time>
      </trkpt>
      <trkpt lat="47.06769" lon="-0.8115">
        <ele>176</ele>
        <time>2016-10-27T13:19:20Z</time>
      </trkpt>
      <trkpt lat="47.06775" lon="-0.81132">
        <ele>177</ele>
        <time>2016-10-27T13:19:27Z</time>
      </trkpt>
      <trkpt lat="47.0678" lon="-0.81118">
        <ele>178</ele>
        <time>2016-10-27T13:19:33Z</time>
      </trkpt>
      <trkpt lat="47.06791" lon="-0.81097">
        <ele>180</ele>
        <time>2016-10-27T13:19:43Z</time>
      </trkpt>
      <trkpt lat="47.06799" lon="-0.81076">
        <ele>179</ele>
        <time>2016-10-27T13:19:52Z</time>
      </trkpt>
      <trkpt lat="47.06808" lon="-0.81056">
        <ele>176</ele>
        <time>2016-10-27T13:20:02Z</time>
      </trkpt>
      <trkpt lat="47.06822" lon="-0.81033">
        <ele>177</ele>
        <time>2016-10-27T13:20:14Z</time>
      </trkpt>
      <trkpt lat="47.06843" lon="-0.81012">
        <ele>183</ele>
        <time>2016-10-27T13:20:26Z</time>
      </trkpt>
      <trkpt lat="47.06853" lon="-0.80999">
        <ele>177</ele>
        <time>2016-10-27T13:20:35Z</time>
      </trkpt>
      <trkpt lat="47.06866" lon="-0.80963">
        <ele>176</ele>
        <time>2016-10-27T13:20:52Z</time>
      </trkpt>
      <trkpt lat="47.06877" lon="-0.80941">
        <ele>179</ele>
        <time>2016-10-27T13:21:01Z</time>
      </trkpt>
      <trkpt lat="47.06884" lon="-0.80925">
        <ele>184</ele>
        <time>2016-10-27T13:21:08Z</time>
      </trkpt>
      <trkpt lat="47.06891" lon="-0.80907">
        <ele>183</ele>
        <time>2016-10-27T13:21:15Z</time>
      </trkpt>
      <trkpt lat="47.069" lon="-0.8089">
        <ele>184</ele>
        <time>2016-10-27T13:21:23Z</time>
      </trkpt>
      <trkpt lat="47.06911" lon="-0.80872">
        <ele>180</ele>
        <time>2016-10-27T13:21:36Z</time>
      </trkpt>
      <trkpt lat="47.06923" lon="-0.80845">
        <ele>179</ele>
        <time>2016-10-27T13:21:50Z</time>
      </trkpt>
      <trkpt lat="47.06934" lon="-0.80822">
        <ele>179</ele>
        <time>2016-10-27T13:22:00Z</time>
      </trkpt>
      <trkpt lat="47.06945" lon="-0.80802">
        <ele>177</ele>
        <time>2016-10-27T13:22:11Z</time>
      </trkpt>
      <trkpt lat="47.06957" lon="-0.80787">
        <ele>178</ele>
        <time>2016-10-27T13:22:21Z</time>
      </trkpt>
      <trkpt lat="47.06967" lon="-0.80771">
        <ele>176</ele>
        <time>2016-10-27T13:22:30Z</time>
      </trkpt>
      <trkpt lat="47.06984" lon="-0.8075">
        <ele>175</ele>
        <time>2016-10-27T13:22:44Z</time>
      </trkpt>
      <trkpt lat="47.07006" lon="-0.80734">
        <ele>174</ele>
        <time>2016-10-27T13:22:59Z</time>
      </trkpt>
      <trkpt lat="47.07023" lon="-0.80719">
        <ele>176</ele>
        <time>2016-10-27T13:23:12Z</time>
      </trkpt>
      <trkpt lat="47.07038" lon="-0.807">
        <ele>172</ele>
        <time>2016-10-27T13:23:24Z</time>
      </trkpt>
      <trkpt lat="47.07049" lon="-0.8069">
        <ele>175</ele>
        <time>2016-10-27T13:23:32Z</time>
      </trkpt>
      <trkpt lat="47.07057" lon="-0.80683">
        <ele>172</ele>
        <time>2016-10-27T13:23:40Z</time>
      </trkpt>
      <trkpt lat="47.07088" lon="-0.80666">
        <ele>174</ele>
        <time>2016-10-27T13:23:59Z</time>
      </trkpt>
      <trkpt lat="47.07108" lon="-0.80658">
        <ele>178</ele>
        <time>2016-10-27T13:24:09Z</time>
      </trkpt>
      <trkpt lat="47.0712" lon="-0.80655">
        <ele>178</ele>
        <time>2016-10-27T13:24:16Z</time>
      </trkpt>
      <trkpt lat="47.07137" lon="-0.80651">
        <ele>176</ele>
        <time>2016-10-27T13:24:28Z</time>
      </trkpt>
      <trkpt lat="47.07147" lon="-0.80648">
        <ele>176</ele>
        <time>2016-10-27T13:24:34Z</time>
      </trkpt>
      <trkpt lat="47.07158" lon="-0.80643">
        <ele>176</ele>
        <time>2016-10-27T13:24:41Z</time>
      </trkpt>
      <trkpt lat="47.0718" lon="-0.8064">
        <ele>174</ele>
        <time>2016-10-27T13:24:53Z</time>
      </trkpt>
      <trkpt lat="47.07197" lon="-0.80636">
        <ele>174</ele>
        <time>2016-10-27T13:25:03Z</time>
      </trkpt>
      <trkpt lat="47.07214" lon="-0.80629">
        <ele>174</ele>
        <time>2016-10-27T13:25:15Z</time>
      </trkpt>
      <trkpt lat="47.07232" lon="-0.80622">
        <ele>170</ele>
        <time>2016-10-27T13:25:27Z</time>
      </trkpt>
      <trkpt lat="47.07248" lon="-0.80615">
        <ele>170</ele>
        <time>2016-10-27T13:25:39Z</time>
      </trkpt>
      <trkpt lat="47.07268" lon="-0.80615">
        <ele>161</ele>
        <time>2016-10-27T13:25:54Z</time>
      </trkpt>
      <trkpt lat="47.07284" lon="-0.80622">
        <ele>162</ele>
        <time>2016-10-27T13:26:05Z</time>
      </trkpt>
      <trkpt lat="47.07306" lon="-0.80632">
        <ele>165</ele>
        <time>2016-10-27T13:26:18Z</time>
      </trkpt>
      <trkpt lat="47.07319" lon="-0.80638">
        <ele>168</ele>
        <time>2016-10-27T13:26:24Z</time>
      </trkpt>
      <trkpt lat="47.07337" lon="-0.80642">
        <ele>168</ele>
        <time>2016-10-27T13:26:32Z</time>
      </trkpt>
      <trkpt lat="47.07356" lon="-0.80644">
        <ele>174</ele>
        <time>2016-10-27T13:26:41Z</time>
      </trkpt>
      <trkpt lat="47.07371" lon="-0.80644">
        <ele>176</ele>
        <time>2016-10-27T13:26:50Z</time>
      </trkpt>
      <trkpt lat="47.07395" lon="-0.80649">
        <ele>177</ele>
        <time>2016-10-27T13:27:02Z</time>
      </trkpt>
      <trkpt lat="47.07407" lon="-0.80653">
        <ele>175</ele>
        <time>2016-10-27T13:27:08Z</time>
      </trkpt>
      <trkpt lat="47.07427" lon="-0.80675">
        <ele>174</ele>
        <time>2016-10-27T13:27:20Z</time>
      </trkpt>
      <trkpt lat="47.07435" lon="-0.80693">
        <ele>172</ele>
        <time>2016-10-27T13:27:31Z</time>
      </trkpt>
      <trkpt lat="47.07436" lon="-0.8073">
        <ele>177</ele>
        <time>2016-10-27T13:27:43Z</time>
      </trkpt>
      <trkpt lat="47.07435" lon="-0.80737">
        <ele>178</ele>
        <time>2016-10-27T13:27:47Z</time>
      </trkpt>
      <trkpt lat="47.07436" lon="-0.80753">
        <ele>176</ele>
        <time>2016-10-27T13:28:01Z</time>
      </trkpt>
      <trkpt lat="47.07431" lon="-0.8079">
        <ele>177</ele>
        <time>2016-10-27T13:28:20Z</time>
      </trkpt>
      <trkpt lat="47.07426" lon="-0.8083">
        <ele>176</ele>
        <time>2016-10-27T13:28:37Z</time>
      </trkpt>
      <trkpt lat="47.07427" lon="-0.80866">
        <ele>175</ele>
        <time>2016-10-27T13:28:51Z</time>
      </trkpt>
      <trkpt lat="47.07424" lon="-0.80898">
        <ele>176</ele>
        <time>2016-10-27T13:29:03Z</time>
      </trkpt>
      <trkpt lat="47.07418" lon="-0.80935">
        <ele>180</ele>
        <time>2016-10-27T13:29:15Z</time>
      </trkpt>
      <trkpt lat="47.07418" lon="-0.80949">
        <ele>179</ele>
        <time>2016-10-27T13:29:20Z</time>
      </trkpt>
      <trkpt lat="47.07415" lon="-0.80983">
        <ele>181</ele>
        <time>2016-10-27T13:29:33Z</time>
      </trkpt>
      <trkpt lat="47.07418" lon="-0.81013">
        <ele>178</ele>
        <time>2016-10-27T13:29:48Z</time>
      </trkpt>
      <trkpt lat="47.0742" lon="-0.81042">
        <ele>177</ele>
        <time>2016-10-27T13:30:02Z</time>
      </trkpt>
      <trkpt lat="47.07421" lon="-0.81076">
        <ele>177</ele>
        <time>2016-10-27T13:30:14Z</time>
      </trkpt>
      <trkpt lat="47.07424" lon="-0.81104">
        <ele>183</ele>
        <time>2016-10-27T13:30:25Z</time>
      </trkpt>
      <trkpt lat="47.07427" lon="-0.81134">
        <ele>182</ele>
        <time>2016-10-27T13:30:37Z</time>
      </trkpt>
      <trkpt lat="47.07428" lon="-0.8115">
        <ele>179</ele>
        <time>2016-10-27T13:30:44Z</time>
      </trkpt>
      <trkpt lat="47.0743" lon="-0.81175">
        <ele>178</ele>
        <time>2016-10-27T13:30:54Z</time>
      </trkpt>
      <trkpt lat="47.07432" lon="-0.8119">
        <ele>177</ele>
        <time>2016-10-27T13:31:01Z</time>
      </trkpt>
      <trkpt lat="47.07435" lon="-0.81205">
        <ele>179</ele>
        <time>2016-10-27T13:31:07Z</time>
      </trkpt>
      <trkpt lat="47.07441" lon="-0.81235">
        <ele>182</ele>
        <time>2016-10-27T13:31:21Z</time>
      </trkpt>
      <trkpt lat="47.0744" lon="-0.81273">
        <ele>183</ele>
        <time>2016-10-27T13:31:34Z</time>
      </trkpt>
      <trkpt lat="47.07442" lon="-0.81287">
        <ele>178</ele>
        <time>2016-10-27T13:31:41Z</time>
      </trkpt>
      <trkpt lat="47.07442" lon="-0.81313">
        <ele>178</ele>
        <time>2016-10-27T13:31:51Z</time>
      </trkpt>
      <trkpt lat="47.07445" lon="-0.81335">
        <ele>177</ele>
        <time>2016-10-27T13:31:59Z</time>
      </trkpt>
      <trkpt lat="47.07446" lon="-0.81363">
        <ele>178</ele>
        <time>2016-10-27T13:32:09Z</time>
      </trkpt>
      <trkpt lat="47.07445" lon="-0.81383">
        <ele>176</ele>
        <time>2016-10-27T13:32:16Z</time>
      </trkpt>
      <trkpt lat="47.07445" lon="-0.81403">
        <ele>177</ele>
        <time>2016-10-27T13:32:23Z</time>
      </trkpt>
      <trkpt lat="47.07448" lon="-0.81427">
        <ele>179</ele>
        <time>2016-10-27T13:32:33Z</time>
      </trkpt>
      <trkpt lat="47.07447" lon="-0.81444">
        <ele>179</ele>
        <time>2016-10-27T13:32:40Z</time>
      </trkpt>
      <trkpt lat="47.07445" lon="-0.81458">
        <ele>179</ele>
        <time>2016-10-27T13:32:49Z</time>
      </trkpt>
      <trkpt lat="47.07428" lon="-0.81471">
        <ele>176</ele>
        <time>2016-10-27T13:32:59Z</time>
      </trkpt>
      <trkpt lat="47.07419" lon="-0.81494">
        <ele>176</ele>
        <time>2016-10-27T13:33:12Z</time>
      </trkpt>
      <trkpt lat="47.07393" lon="-0.81496">
        <ele>177</ele>
        <time>2016-10-27T13:33:26Z</time>
      </trkpt>
      <trkpt lat="47.07377" lon="-0.81493">
        <ele>177</ele>
        <time>2016-10-27T13:33:35Z</time>
      </trkpt>
      <trkpt lat="47.07364" lon="-0.81492">
        <ele>176</ele>
        <time>2016-10-27T13:33:43Z</time>
      </trkpt>
      <trkpt lat="47.07343" lon="-0.81487">
        <ele>175</ele>
        <time>2016-10-27T13:33:56Z</time>
      </trkpt>
      <trkpt lat="47.07321" lon="-0.81482">
        <ele>174</ele>
        <time>2016-10-27T13:34:09Z</time>
      </trkpt>
      <trkpt lat="47.07298" lon="-0.81478">
        <ele>174</ele>
        <time>2016-10-27T13:34:22Z</time>
      </trkpt>
      <trkpt lat="47.0728" lon="-0.81473">
        <ele>174</ele>
        <time>2016-10-27T13:34:33Z</time>
      </trkpt>
      <trkpt lat="47.07256" lon="-0.81468">
        <ele>174</ele>
        <time>2016-10-27T13:34:47Z</time>
      </trkpt>
      <trkpt lat="47.07238" lon="-0.81465">
        <ele>173</ele>
        <time>2016-10-27T13:34:57Z</time>
      </trkpt>
      <trkpt lat="47.07225" lon="-0.81464">
        <ele>175</ele>
        <time>2016-10-27T13:35:05Z</time>
      </trkpt>
      <trkpt lat="47.07205" lon="-0.81463">
        <ele>174</ele>
        <time>2016-10-27T13:35:17Z</time>
      </trkpt>
      <trkpt lat="47.07185" lon="-0.81457">
        <ele>175</ele>
        <time>2016-10-27T13:35:29Z</time>
      </trkpt>
      <trkpt lat="47.07166" lon="-0.81454">
        <ele>175</ele>
        <time>2016-10-27T13:35:40Z</time>
      </trkpt>
      <trkpt lat="47.07154" lon="-0.81453">
        <ele>173</ele>
        <time>2016-10-27T13:35:47Z</time>
      </trkpt>
      <trkpt lat="47.07142" lon="-0.81451">
        <ele>174</ele>
        <time>2016-10-27T13:35:54Z</time>
      </trkpt>
      <trkpt lat="47.07131" lon="-0.8145">
        <ele>175</ele>
        <time>2016-10-27T13:36:01Z</time>
      </trkpt>
      <trkpt lat="47.0711" lon="-0.81448">
        <ele>176</ele>
        <time>2016-10-27T13:36:14Z</time>
      </trkpt>
      <trkpt lat="47.07093" lon="-0.81446">
        <ele>175</ele>
        <time>2016-10-27T13:36:25Z</time>
      </trkpt>
      <trkpt lat="47.07073" lon="-0.81449">
        <ele>177</ele>
        <time>2016-10-27T13:36:37Z</time>
      </trkpt>
      <trkpt lat="47.0706" lon="-0.81455">
        <ele>176</ele>
        <time>2016-10-27T13:36:45Z</time>
      </trkpt>
      <trkpt lat="47.07041" lon="-0.8147">
        <ele>174</ele>
        <time>2016-10-27T13:36:58Z</time>
      </trkpt>
      <trkpt lat="47.07027" lon="-0.81479">
        <ele>175</ele>
        <time>2016-10-27T13:37:07Z</time>
      </trkpt>
      <trkpt lat="47.07009" lon="-0.8149">
        <ele>175</ele>
        <time>2016-10-27T13:37:19Z</time>
      </trkpt>
      <trkpt lat="47.0699" lon="-0.81501">
        <ele>175</ele>
        <time>2016-10-27T13:37:31Z</time>
      </trkpt>
      <trkpt lat="47.06972" lon="-0.81513">
        <ele>174</ele>
        <time>2016-10-27T13:37:42Z</time>
      </trkpt>
      <trkpt lat="47.06961" lon="-0.81521">
        <ele>173</ele>
        <time>2016-10-27T13:37:50Z</time>
      </trkpt>
      <trkpt lat="47.06952" lon="-0.81527">
        <ele>175</ele>
        <time>2016-10-27T13:37:56Z</time>
      </trkpt>
      <trkpt lat="47.06933" lon="-0.81539">
        <ele>176</ele>
        <time>2016-10-27T13:38:08Z</time>
      </trkpt>
      <trkpt lat="47.06923" lon="-0.81546">
        <ele>176</ele>
        <time>2016-10-27T13:38:15Z</time>
      </trkpt>
      <trkpt lat="47.06905" lon="-0.81558">
        <ele>174</ele>
        <time>2016-10-27T13:38:27Z</time>
      </trkpt>
      <trkpt lat="47.06891" lon="-0.81564">
        <ele>175</ele>
        <time>2016-10-27T13:38:35Z</time>
      </trkpt>
      <trkpt lat="47.06877" lon="-0.81549">
        <ele>175</ele>
        <time>2016-10-27T13:38:45Z</time>
      </trkpt>
      <trkpt lat="47.06868" lon="-0.81538">
        <ele>178</ele>
        <time>2016-10-27T13:38:53Z</time>
      </trkpt>
      <trkpt lat="47.06852" lon="-0.81527">
        <ele>175</ele>
        <time>2016-10-27T13:39:05Z</time>
      </trkpt>
      <trkpt lat="47.06838" lon="-0.81515">
        <ele>173</ele>
        <time>2016-10-27T13:39:16Z</time>
      </trkpt>
      <trkpt lat="47.06823" lon="-0.81499">
        <ele>169</ele>
        <time>2016-10-27T13:39:29Z</time>
      </trkpt>
      <trkpt lat="47.06808" lon="-0.81484">
        <ele>171</ele>
        <time>2016-10-27T13:39:40Z</time>
      </trkpt>
      <trkpt lat="47.06793" lon="-0.81472">
        <ele>173</ele>
        <time>2016-10-27T13:39:50Z</time>
      </trkpt>
      <trkpt lat="47.0678" lon="-0.81457">
        <ele>172</ele>
        <time>2016-10-27T13:40:02Z</time>
      </trkpt>
      <trkpt lat="47.0676" lon="-0.81443">
        <ele>174</ele>
        <time>2016-10-27T13:40:13Z</time>
      </trkpt>
      <trkpt lat="47.06745" lon="-0.81428">
        <ele>176</ele>
        <time>2016-10-27T13:40:23Z</time>
      </trkpt>
      <trkpt lat="47.06732" lon="-0.81411">
        <ele>178</ele>
        <time>2016-10-27T13:40:33Z</time>
      </trkpt>
      <trkpt lat="47.06717" lon="-0.8139">
        <ele>178</ele>
        <time>2016-10-27T13:40:46Z</time>
      </trkpt>
      <trkpt lat="47.06709" lon="-0.81378">
        <ele>177</ele>
        <time>2016-10-27T13:40:54Z</time>
      </trkpt>
      <trkpt lat="47.06701" lon="-0.81371">
        <ele>178</ele>
        <time>2016-10-27T13:41:06Z</time>
      </trkpt>
      <trkpt lat="47.06701" lon="-0.81371">
        <ele>130.8</ele>
        <time>2016-10-27T13:41:21Z</time>
      </trkpt>
      <trkpt lat="47.06701" lon="-0.81371">
        <ele>130.8</ele>
        <time>2016-10-27T13:41:22Z</time>
      </trkpt>
    </trkseg>
  </trk>
</gpx>